createdAt,value
2022-11-29T00:01:54.112Z,76.93
2022-11-29T00:04:22.432Z,78.80
2022-11-29T00:06:50.781Z,73.90
2022-11-29T00:09:19.172Z,73.90
2022-11-29T00:12:04.710Z,78.60
2022-11-29T00:14:34.560Z,72.00
2022-11-29T00:17:04.479Z,68.43
2022-11-29T00:19:33.546Z,72.55
2022-11-29T00:22:02.439Z,82.33
2022-11-29T00:24:32.777Z,78.10
2022-11-29T00:27:01.920Z,88.17
2022-11-29T00:29:31.153Z,90.07
2022-11-29T00:32:01.064Z,83.13
2022-11-29T00:34:29.941Z,81.87
2022-11-29T00:36:58.411Z,77.63
2022-11-29T00:39:26.955Z,79.67
2022-11-29T00:41:55.455Z,85.47
2022-11-29T00:44:23.787Z,84.13
2022-11-29T00:46:52.107Z,81.10
2022-11-29T00:49:22.148Z,87.23
2022-11-29T00:51:50.719Z,92.23
2022-11-29T00:54:19.052Z,85.33
2022-11-29T00:56:47.345Z,79.90
2022-11-29T00:59:15.615Z,77.70
2022-11-29T01:01:43.962Z,79.43
2022-11-29T01:04:12.430Z,95.77
2022-11-29T01:06:42.301Z,101.60
2022-11-29T01:09:10.693Z,75.90
2022-11-29T01:11:38.985Z,82.20
2022-11-29T01:14:07.255Z,102.30
2022-11-29T01:16:36.132Z,99.20
2022-11-29T01:19:04.797Z,78.30
2022-11-29T01:21:33.238Z,87.80
2022-11-29T01:24:02.912Z,80.83
2022-11-29T01:26:32.640Z,83.93
2022-11-29T01:29:01.386Z,96.27
2022-11-29T01:31:31.450Z,85.20
2022-11-29T01:34:01.726Z,87.73
2022-11-29T01:36:30.822Z,72.60
2022-11-29T01:39:00.827Z,88.63
2022-11-29T01:41:32.806Z,86.70
2022-11-29T01:44:03.860Z,87.47
2022-11-29T01:46:33.663Z,84.70
2022-11-29T01:49:05.952Z,79.27
2022-11-29T01:51:36.073Z,100.57
2022-11-29T01:54:04.686Z,92.13
2022-11-29T01:56:35.329Z,96.80
2022-11-29T01:59:05.890Z,87.27
2022-11-29T02:01:35.182Z,87.43
2022-11-29T02:04:03.983Z,85.43
2022-11-29T02:06:32.385Z,73.13
2022-11-29T02:09:00.728Z,81.77
2022-11-29T02:11:51.475Z,92.27
2022-11-29T02:14:35.363Z,77.63
2022-11-29T02:17:12.422Z,91.77
2022-11-29T02:20:07.097Z,85.07
2022-11-29T02:22:42.752Z,87.83
2022-11-29T02:25:30.865Z,92.50
2022-11-29T02:28:43.677Z,78.67
2022-11-29T02:31:53.377Z,78.73
2022-11-29T02:34:34.651Z,92.27
2022-11-29T02:37:14.526Z,85.73
2022-11-29T02:39:57.748Z,88.17
2022-11-29T02:42:56.046Z,85.73
2022-11-29T02:45:34.569Z,91.03
2022-11-29T02:48:15.795Z,87.13
2022-11-29T02:50:51.442Z,87.07
2022-11-29T02:53:24.361Z,78.80
2022-11-29T02:55:58.661Z,96.43
2022-11-29T02:58:29.917Z,98.33
2022-11-29T03:01:02.626Z,97.30
2022-11-29T03:03:36.781Z,83.67
2022-11-29T03:06:15.044Z,95.37
2022-11-29T03:08:49.795Z,87.77
2022-11-29T03:11:25.699Z,83.60
2022-11-29T03:14:14.271Z,82.67
2022-11-29T03:16:47.849Z,106.83
2022-11-29T03:19:32.268Z,74.03
2022-11-29T03:22:09.410Z,93.23
2022-11-29T03:24:44.204Z,84.03
2022-11-29T03:27:14.865Z,80.23
2022-11-29T03:29:48.761Z,76.20
2022-11-29T03:32:21.833Z,80.90
2022-11-29T03:34:57.888Z,85.30
2022-11-29T03:37:32.514Z,65.67
2022-11-29T03:40:05.912Z,89.93
2022-11-29T03:42:37.693Z,77.97
2022-11-29T03:45:10.350Z,69.43
2022-11-29T03:47:46.006Z,64.10
2022-11-29T03:50:18.280Z,100.30
2022-11-29T03:52:51.766Z,78.40
2022-11-29T03:55:45.304Z,88.13
2022-11-29T03:58:22.624Z,89.70
2022-11-29T04:01:04.743Z,85.87
2022-11-29T04:03:52.455Z,85.23
2022-11-29T04:06:25.694Z,81.93
2022-11-29T04:09:16.156Z,90.23
2022-11-29T04:12:05.251Z,100.53
2022-11-29T04:14:52.044Z,94.07
2022-11-29T04:17:43.156Z,107.67
2022-11-29T04:20:48.926Z,81.23
2022-11-29T04:23:53.260Z,82.17
2022-11-29T04:26:53.520Z,80.20
2022-11-29T04:29:51.441Z,72.80
2022-11-29T04:32:52.147Z,82.73
2022-11-29T04:35:34.341Z,73.20
2022-11-29T04:38:18.762Z,71.47
2022-11-29T04:41:15.445Z,73.97
2022-11-29T04:43:53.167Z,74.70
2022-11-29T04:46:37.958Z,69.80
2022-11-29T04:49:31.013Z,73.93
2022-11-29T04:52:11.386Z,76.87
2022-11-29T04:54:46.943Z,75.53
2022-11-29T04:57:22.730Z,78.13
2022-11-29T04:59:57.902Z,74.00
2022-11-29T05:02:33.939Z,91.27
2022-11-29T05:05:08.592Z,76.33
2022-11-29T05:07:44.965Z,76.80
2022-11-29T05:10:21.746Z,78.10
2022-11-29T05:12:54.874Z,78.57
2022-11-29T05:15:51.580Z,79.07
2022-11-29T05:18:27.686Z,90.20
2022-11-29T05:21:01.911Z,83.50
2022-11-29T05:23:48.128Z,79.67
2022-11-29T05:26:21.067Z,78.23
2022-11-29T05:28:57.772Z,74.87
2022-11-29T05:31:51.589Z,72.10
2022-11-29T05:34:35.171Z,81.80
2022-11-29T05:37:10.478Z,73.87
2022-11-29T05:39:44.624Z,68.17
2022-11-29T05:42:37.545Z,64.37
2022-11-29T05:45:10.173Z,64.13
2022-11-29T05:47:46.711Z,76.13
2022-11-29T05:50:20.615Z,71.17
2022-11-29T05:52:55.083Z,84.87
2022-11-29T05:55:33.973Z,67.57
2022-11-29T05:58:05.524Z,74.60
2022-11-29T06:00:41.498Z,82.83
2022-11-29T06:03:16.219Z,70.10
2022-11-29T06:05:48.894Z,81.60
2022-11-29T06:08:21.014Z,70.93
2022-11-29T06:10:57.808Z,80.13
2022-11-29T06:13:36.775Z,68.80
2022-11-29T06:16:20.687Z,75.17
2022-11-29T06:19:16.384Z,65.17
2022-11-29T06:21:48.312Z,75.87
2022-11-29T06:24:37.462Z,72.23
2022-11-29T06:27:19.445Z,81.60
2022-11-29T06:29:52.825Z,76.50
2022-11-29T06:32:26.783Z,68.63
2022-11-29T06:35:00.412Z,76.97
2022-11-29T06:37:32.506Z,69.93
2022-11-29T06:40:01.237Z,68.40
2022-11-29T06:42:29.528Z,65.20
2022-11-29T06:44:58.135Z,72.37
2022-11-29T06:47:29.905Z,74.67
2022-11-29T06:50:06.720Z,67.90
2022-11-29T06:52:44.887Z,76.03
2022-11-29T06:55:16.706Z,60.87
2022-11-29T06:57:56.472Z,51.23
2022-11-29T07:00:27.726Z,59.60
2022-11-29T07:03:20.234Z,62.73
2022-11-29T07:05:51.953Z,51.30
2022-11-29T07:08:22.136Z,58.40
2022-11-29T07:10:53.295Z,65.93
2022-11-29T07:13:22.790Z,71.13
2022-11-29T07:16:04.321Z,62.23
2022-11-29T07:18:35.820Z,61.80
2022-11-29T07:21:12.970Z,60.43
2022-11-29T07:23:45.445Z,59.03
2022-11-29T07:26:20.068Z,55.17
2022-11-29T07:29:01.484Z,58.53
2022-11-29T07:31:36.701Z,56.63
2022-11-29T07:34:12.082Z,50.90
2022-11-29T07:36:52.554Z,55.33
2022-11-29T07:39:27.080Z,58.87
2022-11-29T07:42:01.969Z,52.77
2022-11-29T07:44:37.760Z,56.33
2022-11-29T07:47:06.330Z,55.67
2022-11-29T07:49:34.677Z,51.43
2022-11-29T07:52:04.388Z,50.70
2022-11-29T07:54:32.707Z,55.83
2022-11-29T07:57:01.153Z,59.90
2022-11-29T07:59:29.450Z,61.30
2022-11-29T08:01:58.923Z,56.57
2022-11-29T08:04:27.246Z,53.00
2022-11-29T08:06:55.628Z,56.00
2022-11-29T08:09:25.576Z,55.63
2022-11-29T08:11:53.917Z,50.37
2022-11-29T08:14:22.345Z,54.30
2022-11-29T08:16:50.734Z,54.37
2022-11-29T08:19:19.847Z,53.23
2022-11-29T08:21:48.366Z,55.20
2022-11-29T08:24:16.597Z,53.17
2022-11-29T08:26:46.268Z,54.57
2022-11-29T08:29:14.526Z,52.87
2022-11-29T08:31:43.289Z,55.00
2022-11-29T08:34:11.857Z,58.17
2022-11-29T08:36:40.325Z,49.40
2022-11-29T08:39:09.712Z,56.17
2022-11-29T08:41:38.824Z,53.47
2022-11-29T08:44:08.971Z,60.43
2022-11-29T08:47:03.178Z,55.40
2022-11-29T08:49:31.494Z,56.67
2022-11-29T08:52:14.313Z,53.93
2022-11-29T08:54:43.854Z,53.47
2022-11-29T09:00:03.165Z,55.03
2022-11-29T09:02:32.091Z,54.33
2022-11-29T09:05:00.425Z,46.23
2022-11-29T09:07:29.258Z,48.00
2022-11-29T09:09:57.646Z,59.07
2022-11-29T09:12:26.130Z,56.07
2022-11-29T09:14:54.460Z,51.97
2022-11-29T09:17:24.121Z,53.10
2022-11-29T09:19:52.473Z,52.00
2022-11-29T09:22:21.036Z,49.57
2022-11-29T09:24:49.312Z,48.87
2022-11-29T09:27:20.192Z,53.87
2022-11-29T09:29:48.482Z,54.53
2022-11-29T09:32:16.805Z,49.50
2022-11-29T09:34:46.762Z,50.50
2022-11-29T09:37:15.251Z,52.20
2022-11-29T09:39:43.515Z,47.90
2022-11-29T09:42:31.610Z,53.07
2022-11-29T09:45:05.100Z,46.60
2022-11-29T09:47:53.203Z,48.60
2022-11-29T09:50:28.557Z,48.67
2022-11-29T09:53:09.402Z,51.80
2022-11-29T09:55:47.813Z,53.00
2022-11-29T09:58:20.899Z,49.70
2022-11-29T10:00:51.669Z,51.67
2022-11-29T10:03:25.555Z,55.63
2022-11-29T10:05:59.679Z,49.43
2022-11-29T10:08:33.890Z,52.30
2022-11-29T10:11:13.119Z,48.00
2022-11-29T10:13:45.777Z,52.03
2022-11-29T10:16:19.756Z,50.73
2022-11-29T10:18:51.437Z,52.43
2022-11-29T10:21:24.516Z,53.50
2022-11-29T10:23:55.683Z,54.10
2022-11-29T10:26:27.304Z,49.60
2022-11-29T10:28:58.112Z,48.27
2022-11-29T10:31:29.343Z,48.07
2022-11-29T10:34:01.066Z,55.20
2022-11-29T10:36:37.544Z,47.90
2022-11-29T10:39:14.778Z,53.47
2022-11-29T10:41:43.213Z,44.63
2022-11-29T10:44:14.062Z,46.37
2022-11-29T10:46:42.785Z,43.67
2022-11-29T10:49:15.275Z,46.63
2022-11-29T10:51:46.081Z,42.57
2022-11-29T10:54:32.253Z,42.23
2022-11-29T10:57:02.072Z,44.17
2022-11-29T10:59:33.022Z,40.20
2022-11-29T11:02:01.589Z,41.53
2022-11-29T11:04:31.619Z,48.47
2022-11-29T11:07:03.926Z,45.60
2022-11-29T11:09:39.104Z,48.37
2022-11-29T11:12:09.400Z,49.37
2022-11-29T11:14:39.370Z,48.97
2022-11-29T11:17:26.191Z,49.80
2022-11-29T11:20:01.123Z,50.77
2022-11-29T11:22:32.785Z,46.33
2022-11-29T11:25:03.857Z,44.30
2022-11-29T11:27:33.504Z,41.07
2022-11-29T11:30:02.099Z,43.50
2022-11-29T11:32:30.485Z,42.03
2022-11-29T11:35:00.195Z,44.03
2022-11-29T11:37:30.855Z,40.27
2022-11-29T11:40:00.405Z,44.63
2022-11-29T11:42:40.656Z,46.73
2022-11-29T11:45:27.280Z,43.47
2022-11-29T11:47:58.054Z,47.20
2022-11-29T11:50:29.894Z,44.33
2022-11-29T11:53:01.798Z,40.83
2022-11-29T11:55:36.306Z,35.20
2022-11-29T11:58:10.667Z,40.53
2022-11-29T12:01:04.109Z,45.00
2022-11-29T12:03:37.557Z,37.60
2022-11-29T12:06:18.970Z,44.70
2022-11-29T12:08:49.098Z,38.93
2022-11-29T12:11:18.953Z,41.63
2022-11-29T12:13:51.748Z,42.23
2022-11-29T12:16:27.613Z,42.10
2022-11-29T12:19:00.845Z,44.77
2022-11-29T12:21:34.580Z,48.70
2022-11-29T12:24:09.958Z,48.37
2022-11-29T12:29:33.532Z,46.57
2022-11-29T12:32:13.123Z,47.70
2022-11-29T12:34:55.015Z,40.70
2022-11-29T12:37:28.044Z,43.60
2022-11-29T12:40:04.803Z,43.20
2022-11-29T12:42:41.328Z,42.23
2022-11-29T12:45:24.835Z,43.50
2022-11-29T12:47:59.084Z,43.80
2022-11-29T12:50:34.695Z,43.70
2022-11-29T12:53:25.530Z,38.30
2022-11-29T12:56:05.183Z,35.50
2022-11-29T12:58:44.227Z,37.93
2022-11-29T13:01:21.478Z,37.20
2022-11-29T13:03:56.594Z,41.10
2022-11-29T13:06:30.555Z,40.57
2022-11-29T13:09:25.812Z,43.53
2022-11-29T13:11:57.953Z,40.43
2022-11-29T13:14:48.238Z,39.40
2022-11-29T13:17:25.484Z,42.17
2022-11-29T13:19:57.904Z,38.87
2022-11-29T13:22:32.079Z,33.43
2022-11-29T13:25:02.835Z,36.57
2022-11-29T13:27:38.069Z,41.23
2022-11-29T13:30:09.093Z,42.00
2022-11-29T13:32:39.962Z,36.47
2022-11-29T13:35:09.991Z,42.73
2022-11-29T13:37:42.188Z,39.33
2022-11-29T13:40:21.418Z,37.77
2022-11-29T13:42:59.377Z,43.23
2022-11-29T13:45:32.667Z,39.93
2022-11-29T13:48:02.260Z,41.40
2022-11-29T13:50:39.033Z,33.60
2022-11-29T13:53:14.570Z,43.30
2022-11-29T13:55:47.984Z,35.40
2022-11-29T13:58:35.452Z,34.73
2022-11-29T14:01:07.992Z,34.50
2022-11-29T14:03:39.762Z,30.13
2022-11-29T14:06:14.462Z,32.77
2022-11-29T14:09:24.503Z,32.67
2022-11-29T14:12:00.182Z,37.00
2022-11-29T14:14:33.319Z,31.03
2022-11-29T14:17:02.939Z,29.70
2022-11-29T14:19:34.060Z,30.10
2022-11-29T14:22:20.727Z,24.57
2022-11-29T14:25:00.015Z,27.27
2022-11-29T14:28:08.341Z,27.47
2022-11-29T14:30:52.313Z,27.17
2022-11-29T14:33:51.143Z,31.43
2022-11-29T14:36:27.305Z,28.07
2022-11-29T14:39:05.864Z,24.93
2022-11-29T14:41:46.971Z,28.23
2022-11-29T14:44:19.276Z,29.37
2022-11-29T14:46:49.539Z,28.23
2022-11-29T14:49:23.571Z,27.90
2022-11-29T14:52:18.447Z,31.10
2022-11-29T14:54:59.162Z,26.40
2022-11-29T14:57:53.331Z,29.53
2022-11-29T15:00:23.225Z,29.20
2022-11-29T15:02:54.632Z,27.37
2022-11-29T15:05:28.365Z,31.93
2022-11-29T15:08:05.287Z,30.03
2022-11-29T15:10:37.704Z,28.90
2022-11-29T15:13:06.315Z,29.83
2022-11-29T15:15:39.374Z,31.50
2022-11-29T15:18:21.580Z,26.40
2022-11-29T15:21:04.008Z,31.43
2022-11-29T15:23:41.164Z,35.77
2022-11-29T15:26:17.712Z,32.13
2022-11-29T15:28:46.470Z,27.10
2022-11-29T15:31:17.848Z,31.10
2022-11-29T15:33:48.773Z,31.87
2022-11-29T15:36:19.939Z,35.00
2022-11-29T15:38:49.715Z,33.10
2022-11-29T15:41:23.261Z,32.33
2022-11-29T15:43:54.493Z,35.67
2022-11-29T15:46:25.924Z,27.43
2022-11-29T15:48:56.423Z,35.67
2022-11-29T15:51:29.749Z,31.97
2022-11-29T15:54:12.074Z,29.83
2022-11-29T15:56:44.153Z,33.80
2022-11-29T15:59:21.611Z,32.83
2022-11-29T16:01:51.796Z,32.30
2022-11-29T16:04:22.692Z,32.40
2022-11-29T16:06:52.306Z,35.17
2022-11-29T16:09:23.989Z,30.60
2022-11-29T16:11:53.087Z,33.60
2022-11-29T16:14:23.754Z,32.37
2022-11-29T16:16:54.696Z,29.63
2022-11-29T16:19:30.910Z,31.80
2022-11-29T16:22:01.479Z,32.33
2022-11-29T16:24:31.750Z,32.70
2022-11-29T16:27:02.366Z,30.87
2022-11-29T16:29:32.723Z,36.93
2022-11-29T16:32:05.547Z,31.90
2022-11-29T16:34:42.986Z,38.13
2022-11-29T16:37:21.914Z,33.20
2022-11-29T16:39:54.126Z,34.90
2022-11-29T16:42:26.021Z,40.93
2022-11-29T16:45:34.255Z,40.87
2022-11-29T16:48:05.859Z,36.53
2022-11-29T16:50:36.961Z,31.90
2022-11-29T16:53:36.244Z,37.20
2022-11-29T16:56:06.609Z,33.53
2022-11-29T16:58:40.193Z,32.13
2022-11-29T17:01:28.314Z,34.40
2022-11-29T17:03:58.650Z,36.57
2022-11-29T17:06:29.983Z,33.03
2022-11-29T17:09:01.192Z,38.37
2022-11-29T17:11:32.907Z,37.30
2022-11-29T17:14:03.276Z,36.10
2022-11-29T17:16:32.905Z,33.87
2022-11-29T17:19:02.063Z,35.70
2022-11-29T17:21:32.508Z,35.50
2022-11-29T17:24:01.261Z,33.07
2022-11-29T17:26:32.097Z,36.87
2022-11-29T17:29:01.253Z,35.37
2022-11-29T17:31:35.137Z,38.53
2022-11-29T17:34:04.347Z,31.97
2022-11-29T17:36:34.492Z,36.33
2022-11-29T17:39:03.165Z,36.80
2022-11-29T17:41:33.130Z,36.07
2022-11-29T17:44:02.499Z,37.83
2022-11-29T17:46:33.229Z,37.10
2022-11-29T17:49:04.179Z,36.57
2022-11-29T17:51:55.928Z,44.07
2022-11-29T17:54:28.419Z,35.33
2022-11-29T17:56:57.682Z,37.47
2022-11-29T17:59:27.847Z,39.57
2022-11-29T18:01:57.569Z,33.47
2022-11-29T18:04:27.131Z,34.40
2022-11-29T18:06:57.657Z,36.93
2022-11-29T18:09:27.050Z,33.87
2022-11-29T18:11:56.335Z,41.13
2022-11-29T18:14:29.229Z,44.73
2022-11-29T18:16:59.566Z,37.53
2022-11-29T18:19:29.988Z,36.60
2022-11-29T18:22:04.685Z,38.20
2022-11-29T18:24:34.738Z,33.07
2022-11-29T18:27:05.002Z,39.00
2022-11-29T18:29:39.061Z,37.13
2022-11-29T18:32:09.854Z,42.23
2022-11-29T18:34:40.474Z,39.30
2022-11-29T18:37:17.614Z,39.33
2022-11-29T18:39:54.793Z,39.63
2022-11-29T18:42:25.991Z,38.73
2022-11-29T18:45:00.305Z,43.00
2022-11-29T18:47:33.455Z,36.53
2022-11-29T18:50:07.659Z,42.30
2022-11-29T18:52:40.895Z,41.77
2022-11-29T18:55:11.821Z,39.77
2022-11-29T18:57:42.858Z,40.13
2022-11-29T19:00:14.447Z,37.73
2022-11-29T19:02:45.949Z,34.80
2022-11-29T19:05:15.950Z,36.83
2022-11-29T19:07:48.046Z,38.13
2022-11-29T19:10:19.542Z,32.77
2022-11-29T19:12:49.518Z,33.90
2022-11-29T19:15:21.080Z,37.60
2022-11-29T19:17:53.418Z,38.20
2022-11-29T19:20:23.478Z,39.10
2022-11-29T19:23:00.273Z,35.77
2022-11-29T19:25:33.864Z,36.70
2022-11-29T19:28:03.599Z,38.30
2022-11-29T19:30:34.921Z,37.50
2022-11-29T19:33:04.551Z,40.30
2022-11-29T19:35:34.311Z,37.50
2022-11-29T19:38:08.597Z,39.00
2022-11-29T19:40:41.132Z,38.27
2022-11-29T19:43:11.797Z,44.40
2022-11-29T19:45:42.498Z,38.83
2022-11-29T19:48:16.104Z,35.63
2022-11-29T19:50:46.853Z,42.47
2022-11-29T19:53:22.225Z,38.93
2022-11-29T19:55:52.124Z,37.53
2022-11-29T19:58:23.303Z,38.37
2022-11-29T20:00:55.276Z,39.63
2022-11-29T20:03:25.899Z,43.20
2022-11-29T20:05:58.520Z,43.10
2022-11-29T20:08:30.785Z,38.80
2022-11-29T20:11:08.394Z,39.13
2022-11-29T20:13:39.292Z,37.97
2022-11-29T20:16:11.500Z,39.20
2022-11-29T20:18:48.809Z,42.90
2022-11-29T20:21:21.311Z,47.63
2022-11-29T20:23:57.921Z,40.77
2022-11-29T20:26:29.377Z,43.60
2022-11-29T20:29:00.016Z,43.70
2022-11-29T20:31:30.551Z,44.60
2022-11-29T20:34:03.155Z,43.83
2022-11-29T20:36:46.862Z,39.33
2022-11-29T20:39:26.876Z,35.80
2022-11-29T20:42:14.779Z,38.73
2022-11-29T20:44:50.922Z,37.67
2022-11-29T20:47:23.698Z,39.50
2022-11-29T20:49:57.065Z,33.70
2022-11-29T20:52:35.352Z,37.13
2022-11-29T20:55:06.480Z,37.63
2022-11-29T20:57:39.008Z,40.20
2022-11-29T21:00:11.201Z,38.57
2022-11-29T21:02:43.086Z,40.57
2022-11-29T21:05:13.429Z,36.93
2022-11-29T21:07:42.863Z,39.10
2022-11-29T21:10:19.926Z,40.10
2022-11-29T21:12:50.573Z,37.80
2022-11-29T21:15:22.266Z,38.57
2022-11-29T21:17:53.307Z,39.43
2022-11-29T21:20:24.912Z,38.37
2022-11-29T21:22:59.871Z,40.30
2022-11-29T21:25:39.135Z,36.63
2022-11-29T21:28:12.871Z,39.90
2022-11-29T21:30:42.568Z,39.27
2022-11-29T21:33:12.408Z,34.77
2022-11-29T21:35:42.034Z,38.03
2022-11-29T21:38:14.920Z,43.30
2022-11-29T21:40:45.068Z,36.67
2022-11-29T21:43:13.502Z,38.40
2022-11-29T21:45:42.494Z,39.63
2022-11-29T21:48:30.910Z,33.80
2022-11-29T21:50:59.236Z,36.27
2022-11-29T21:53:28.033Z,36.87
2022-11-29T21:56:02.322Z,34.60
2022-11-29T21:58:32.762Z,34.80
2022-11-29T22:01:07.800Z,36.43
2022-11-29T22:03:36.162Z,38.73
2022-11-29T22:06:05.489Z,32.03
2022-11-29T22:08:38.981Z,39.27
2022-11-29T22:11:10.552Z,34.97
2022-11-29T22:14:00.138Z,38.30
2022-11-29T22:16:28.682Z,34.57
2022-11-29T22:18:56.978Z,35.53
2022-11-29T22:21:25.266Z,35.83
2022-11-29T22:23:53.845Z,35.87
2022-11-29T22:26:24.267Z,35.90
2022-11-29T22:28:52.684Z,41.23
2022-11-29T22:31:21.005Z,35.10
2022-11-29T22:33:49.280Z,35.53
2022-11-29T22:36:17.662Z,35.27
2022-11-29T22:38:45.988Z,35.00
2022-11-29T22:41:14.898Z,34.20
2022-11-29T22:43:44.846Z,44.20
2022-11-29T22:46:14.601Z,36.00
2022-11-29T22:48:43.979Z,33.57
2022-11-29T22:51:14.349Z,39.97
2022-11-29T22:53:43.647Z,35.80
2022-11-29T22:56:12.779Z,28.67
2022-11-29T22:58:41.092Z,37.80
2022-11-29T23:01:12.569Z,36.50
2022-11-29T23:03:42.621Z,43.40
2022-11-29T23:06:12.615Z,30.17
2022-11-29T23:08:42.392Z,38.93
2022-11-29T23:11:14.149Z,35.27
2022-11-29T23:13:43.593Z,36.50
2022-11-29T23:16:15.250Z,32.90
2022-11-29T23:18:45.679Z,33.60
2022-11-29T23:21:15.919Z,39.30
2022-11-29T23:23:44.920Z,34.23
2022-11-29T23:26:19.502Z,32.33
2022-11-29T23:28:48.227Z,31.20
2022-11-29T23:31:18.559Z,32.33
2022-11-29T23:33:47.138Z,39.27
2022-11-29T23:36:16.808Z,35.10
2022-11-29T23:38:45.269Z,30.30
2022-11-29T23:41:13.907Z,33.53
2022-11-29T23:43:42.600Z,30.50
2022-11-29T23:46:13.909Z,31.37
2022-11-29T23:48:43.994Z,32.43
2022-11-29T23:51:12.780Z,30.70
2022-11-29T23:53:41.627Z,29.30
2022-11-29T23:56:13.989Z,31.23
2022-11-29T23:58:42.423Z,29.60
